Current Conditions

Updated: 25-Oct-2014 3:04pm  
Summary / Temperature Wind Rain






Feels like: 81°F

1-hour difference
1.2°F 1.2°F warmer than last hour.

24-hour difference
2.6°F2.6°F colder than yesterday at this time.

  Today Yesterday
High: 82.7°F
2:51pm
87.4°F
4:12pm
Low: 53.1°F
7:16am
50.4°F
6:58am
 Wind from N N
0.8
Gust:  0.0 mph
0 Beaufort - Calm

Today: 5.0 - 1:06pm
Month: 9.2 mph - Oct 7
Rain Today: 0.00 in
Current Rate (/hr): 0.00 in
Max Rate (/hr):
Rain Yesterday: 0.00 in
Storm Rain: 0.00 in
This Month: 0.00 in
Season Total: 0.01 in
Last Rain Event: 47 days ago
Humidity / Barometer Sun / Moon
Humidity: 34 Increased 4.0% in the last hour.
Dew Point: 51.4°F Increased 4.2°F in the last hour.
Barometer: 29.992 inHg  
Baro Trend: Steady
Sunrise: 7:12am
Sunset: 6:08pm
Moonrise: 8:51am
Moonset: 6:49pm
Sky Conditions UV Index
Sky: Clear
Visibility: 10 miles
Clouds: None
Current: 3.0  Moderate 
Saturday: 4.7  Moderate 
Sunday: 4.2  Moderate 
Air Quality Fire Danger
Ozone Good
PM 2.5 Good
Current: 50  Low 

Local Alerts Local Forecast
Local NWS Alerts
Today

Sunny

High 79
Tonight

Clear

Low 50
Sun

Partly
Cloudy
High 72
Sun night

Mostly
Clear
Low 46
Mon

Mostly
Sunny
High 72
Mon night

Clear

Low 47
Tue

Mostly
Sunny
High 77

Local Radar Local Satellite Neighborhood Cam Sky Cam
Local Radar Local Satellite Neighborhood Cam Sky Cam


Nearby METAR Reports

KPTV - Porterville, California, USA
Distance from station: SSW 4mi, 7km
Updated: Sat, 25-Oct-2014 2:55pm PDT
Clear
Clear
 Wind from W
Wind: W 9 mph , 15 km/h
Temperature: 79°F , 26°C
Dew Point: 46°F , 8°C
Humidity: 32%
Barometer: 30.04 inHg , 1017.3 hPa
Clouds: Clear
Visibility: 10 miles , 16 km
2014/10/25 21:55 KPTV 252155Z 27008KT 210V290 10SM CLR 26/08 A3004 RMK AO1
KVIS - Visalia, California, USA
Distance from station: NW 27mi, 43km
Updated: Sat, 25-Oct-2014 2:55pm PDT
Clear
Clear
 Wind from SW
Wind: SW 5 mph , 7 km/h
Temperature: 79°F , 26°C
Dew Point: 48°F , 9°C
Humidity: 34%
Barometer: 30.03 inHg , 1016.9 hPa
Clouds: Clear
Visibility: 10 miles , 16 km
2014/10/25 21:55 KVIS 252155Z 22004KT 10SM CLR 26/09 A3003 RMK AO1

Metar display script from Saratoga-Weather.org



Visitor Map

Locations of visitors to this page